createdAt,value
2018-12-26T00:02:24.410Z,98392.08
2018-12-26T00:04:54.699Z,98397.04
2018-12-26T00:07:25.028Z,98392.72
2018-12-26T00:10:14.452Z,98393.65
2018-12-26T00:12:44.884Z,98396.80
2018-12-26T00:15:15.177Z,98388.82
2018-12-26T00:17:45.437Z,98398.70
2018-12-26T00:20:17.367Z,98400.55
2018-12-26T00:22:47.634Z,98400.55
2018-12-26T00:25:18.011Z,98393.91
2018-12-26T00:27:48.378Z,98402.91
2018-12-26T00:30:18.738Z,98384.55
2018-12-26T00:32:49.058Z,98375.64
2018-12-26T00:35:19.429Z,98386.39
2018-12-26T00:37:49.760Z,98386.95
2018-12-26T00:40:20.114Z,98390.98
2018-12-26T00:42:50.374Z,98398.55
2018-12-26T00:45:20.727Z,98403.55
2018-12-26T00:47:51.058Z,98401.88
2018-12-26T00:50:21.388Z,98413.98
2018-12-26T00:52:51.657Z,98412.25
2018-12-26T00:55:21.917Z,98408.27
2018-12-26T00:57:52.174Z,98407.34
2018-12-26T01:00:22.512Z,98417.22
2018-12-26T01:02:52.828Z,98413.73
2018-12-26T01:05:23.114Z,98416.89
2018-12-26T01:07:53.407Z,98418.23
2018-12-26T01:10:23.656Z,98416.42
2018-12-26T01:12:54.004Z,98413.73
2018-12-26T01:15:24.332Z,98414.20
2018-12-26T01:17:54.623Z,98426.38
2018-12-26T01:20:24.882Z,98422.81
2018-12-26T01:22:55.162Z,98422.90
2018-12-26T01:25:25.422Z,98430.97
2018-12-26T01:27:55.776Z,98427.02
2018-12-26T01:30:26.131Z,98422.90
2018-12-26T01:32:56.404Z,98432.78
2018-12-26T01:35:26.696Z,98427.90
2018-12-26T01:37:57.028Z,98428.45
2018-12-26T01:40:27.406Z,98426.22
2018-12-26T01:42:57.729Z,98421.23
2018-12-26T01:45:28.016Z,98417.28
2018-12-26T01:47:58.347Z,98421.23
2018-12-26T01:50:28.623Z,98420.77
2018-12-26T01:52:58.941Z,98417.69
2018-12-26T01:55:29.218Z,98423.91
2018-12-26T01:57:59.474Z,98427.02
2018-12-26T02:00:29.834Z,98436.02
2018-12-26T02:03:00.091Z,98433.83
2018-12-26T02:05:30.407Z,98427.16
2018-12-26T02:08:00.660Z,98429.46
2018-12-26T02:10:31.019Z,98423.63
2018-12-26T02:13:01.354Z,98428.50
2018-12-26T02:15:31.653Z,98419.64
2018-12-26T02:18:21.055Z,98418.30
2018-12-26T02:20:51.391Z,98419.64
2018-12-26T02:23:21.717Z,98420.60
2018-12-26T02:25:52.000Z,98427.66
2018-12-26T02:28:22.262Z,98424.64
2018-12-26T02:30:52.520Z,98431.27
2018-12-26T02:33:22.885Z,98428.20
2018-12-26T02:35:53.202Z,98429.55
2018-12-26T02:38:23.494Z,98431.36
2018-12-26T02:40:53.746Z,98429.13
2018-12-26T02:43:24.099Z,98422.41
2018-12-26T02:45:54.372Z,98422.03
2018-12-26T02:48:24.664Z,98423.37
2018-12-26T02:50:54.933Z,98420.73
2018-12-26T02:53:25.235Z,98416.33
2018-12-26T02:55:55.496Z,98427.45
2018-12-26T02:58:25.781Z,98421.62
2018-12-26T03:00:56.108Z,98427.08
2018-12-26T03:03:26.490Z,98418.60
2018-12-26T03:05:56.842Z,98412.76
2018-12-26T03:08:27.119Z,98419.09
2018-12-26T03:10:57.446Z,98411.97
2018-12-26T03:13:27.734Z,98403.02
2018-12-26T03:15:57.999Z,98405.24
2018-12-26T03:18:28.333Z,98398.61
2018-12-26T03:20:58.678Z,98398.61
2018-12-26T03:23:48.018Z,98392.77
2018-12-26T03:26:18.314Z,98389.20
2018-12-26T03:28:48.580Z,98391.97
2018-12-26T03:31:20.479Z,98383.91
2018-12-26T03:33:50.809Z,98380.43
2018-12-26T03:36:40.104Z,98385.30
2018-12-26T03:39:10.385Z,98385.30
2018-12-26T03:41:40.679Z,98371.02
2018-12-26T03:44:10.960Z,98369.27
2018-12-26T03:46:41.288Z,98373.30
2018-12-26T03:49:11.632Z,98373.30
2018-12-26T03:51:41.958Z,98368.47
2018-12-26T03:54:12.302Z,98373.38
2018-12-26T03:56:42.562Z,98358.19
2018-12-26T03:59:12.914Z,98362.22
2018-12-26T04:01:43.235Z,98352.98
2018-12-26T04:04:13.531Z,98361.92
2018-12-26T04:06:43.849Z,98358.82
2018-12-26T04:09:14.123Z,98350.84
2018-12-26T04:11:44.483Z,98359.37
2018-12-26T04:14:16.358Z,98357.01
2018-12-26T04:16:46.873Z,98358.82
2018-12-26T04:19:17.230Z,98354.70
2018-12-26T04:21:47.530Z,98353.36
2018-12-26T04:24:17.794Z,98361.42
2018-12-26T04:26:48.076Z,98352.02
2018-12-26T04:29:18.327Z,98354.33
2018-12-26T04:31:48.677Z,98351.17
2018-12-26T04:34:19.006Z,98352.52
2018-12-26T04:36:49.299Z,98341.35
2018-12-26T04:42:29.636Z,98342.31
2018-12-26T04:44:59.961Z,98336.15
2018-12-26T04:47:30.245Z,98336.99
2018-12-26T04:50:00.575Z,98328.93
2018-12-26T04:52:31.123Z,98332.12
2018-12-26T04:55:01.379Z,98324.98
2018-12-26T04:57:31.726Z,98323.73
2018-12-26T05:00:20.825Z,98320.08
2018-12-26T05:02:51.156Z,98320.16
2018-12-26T05:05:21.415Z,98321.12
2018-12-26T05:07:51.745Z,98313.06
2018-12-26T05:10:22.195Z,98321.59
2018-12-26T05:12:52.435Z,98321.17
2018-12-26T05:15:22.715Z,98310.98
2018-12-26T05:17:53.049Z,98304.27
2018-12-26T05:20:23.416Z,98310.98
2018-12-26T05:22:53.739Z,98303.97
2018-12-26T05:25:24.036Z,98302.67
2018-12-26T05:27:54.359Z,98311.70
2018-12-26T05:30:24.724Z,98302.30
2018-12-26T05:32:55.008Z,98310.36
2018-12-26T05:35:25.261Z,98299.61
2018-12-26T05:37:55.627Z,98297.02
2018-12-26T05:40:25.891Z,98298.81
2018-12-26T05:42:56.163Z,98294.79
2018-12-26T05:45:26.423Z,98287.11
2018-12-26T05:47:56.707Z,98290.30
2018-12-26T05:50:27.036Z,98281.82
2018-12-26T05:52:57.389Z,98272.85
2018-12-26T05:55:27.718Z,98287.61
2018-12-26T05:57:58.004Z,98279.14
2018-12-26T06:00:28.351Z,98277.84
2018-12-26T06:02:58.671Z,98278.22
2018-12-26T06:05:29.016Z,98275.16
2018-12-26T06:07:59.279Z,98284.09
2018-12-26T06:10:29.567Z,98285.77
2018-12-26T06:12:59.822Z,98273.13
2018-12-26T06:15:30.102Z,98286.88
2018-12-26T06:18:00.380Z,98286.00
2018-12-26T06:20:30.666Z,98295.82
2018-12-26T06:23:00.991Z,98280.58
2018-12-26T06:25:31.275Z,98286.80
2018-12-26T06:28:01.552Z,98276.05
2018-12-26T06:30:31.811Z,98289.48
2018-12-26T06:33:02.149Z,98292.97
2018-12-26T06:35:32.493Z,98284.44
2018-12-26T06:38:02.815Z,98284.44
2018-12-26T06:40:33.111Z,98277.34
2018-12-26T06:43:03.437Z,98289.34
2018-12-26T06:45:33.723Z,98291.63
2018-12-26T06:48:04.051Z,98286.09
2018-12-26T06:50:34.315Z,98288.23
2018-12-26T06:53:04.573Z,98286.97
2018-12-26T06:55:34.836Z,98289.52
2018-12-26T06:58:05.178Z,98284.64
2018-12-26T07:00:35.446Z,98291.83
2018-12-26T07:03:05.704Z,98296.41
2018-12-26T07:05:35.970Z,98293.72
2018-12-26T07:08:06.303Z,98301.31
2018-12-26T07:10:36.628Z,98305.26
2018-12-26T07:13:06.920Z,98299.89
2018-12-26T07:15:37.191Z,98294.52
2018-12-26T07:18:07.501Z,98293.50
2018-12-26T07:20:37.763Z,98303.23
2018-12-26T07:23:08.118Z,98294.06
2018-12-26T07:25:38.446Z,98290.45
2018-12-26T07:28:09.498Z,98299.44
2018-12-26T07:30:46.120Z,98286.50
2018-12-26T07:33:16.449Z,98287.67
2018-12-26T07:35:46.737Z,98275.03
2018-12-26T07:38:18.607Z,98275.36
2018-12-26T07:40:48.958Z,98274.34
2018-12-26T07:43:19.286Z,98274.34
2018-12-26T07:45:49.668Z,98273.23
2018-12-26T07:48:19.920Z,98270.92
2018-12-26T07:50:50.216Z,98268.16
2018-12-26T07:53:20.555Z,98253.78
2018-12-26T07:55:50.840Z,98275.20
2018-12-26T07:58:21.179Z,98264.53
2018-12-26T08:00:51.468Z,98282.70
2018-12-26T08:03:21.743Z,98270.94
2018-12-26T08:05:52.049Z,98275.43
2018-12-26T08:08:22.397Z,98281.77
2018-12-26T08:10:52.776Z,98284.92
2018-12-26T08:13:23.211Z,98282.16
2018-12-26T08:15:53.563Z,98280.02
2018-12-26T08:18:23.930Z,98297.90
2018-12-26T08:20:54.222Z,98291.23
2018-12-26T08:23:24.868Z,98287.20
2018-12-26T08:25:55.226Z,98290.86
2018-12-26T08:28:26.806Z,98289.89
2018-12-26T08:31:02.955Z,98289.26
2018-12-26T08:33:33.286Z,98272.34
2018-12-26T08:36:03.664Z,98272.05
2018-12-26T08:38:34.022Z,98269.83
2018-12-26T08:41:04.282Z,98273.86
2018-12-26T08:43:34.681Z,98257.82
2018-12-26T08:46:05.101Z,98253.78
2018-12-26T08:48:37.302Z,98256.47
2018-12-26T08:51:07.695Z,98266.67
2018-12-26T08:53:38.005Z,98252.17
2018-12-26T08:59:23.083Z,98262.78
2018-12-26T09:01:53.362Z,98264.92
2018-12-26T09:04:23.660Z,98251.39
2018-12-26T09:06:53.938Z,98248.14
2018-12-26T09:09:24.318Z,98258.02
2018-12-26T09:11:54.631Z,98248.55
2018-12-26T09:14:25.068Z,98246.24
2018-12-26T09:16:55.369Z,98251.25
2018-12-26T09:19:25.734Z,98256.35
2018-12-26T09:21:56.078Z,98252.27
2018-12-26T09:24:28.519Z,98243.23
2018-12-26T09:26:58.860Z,98242.77
2018-12-26T09:29:29.138Z,98231.54
2018-12-26T09:31:59.533Z,98235.02
2018-12-26T09:34:29.878Z,98233.11
2018-12-26T09:37:00.251Z,98230.80
2018-12-26T09:39:30.589Z,98238.87
2018-12-26T09:42:00.947Z,98235.30
2018-12-26T09:44:31.334Z,98237.52
2018-12-26T09:47:01.691Z,98236.97
2018-12-26T09:49:31.971Z,98238.40
2018-12-26T09:52:02.292Z,98240.63
2018-12-26T09:54:32.598Z,98252.22
2018-12-26T09:57:02.874Z,98238.40
2018-12-26T09:59:33.167Z,98246.00
2018-12-26T10:02:03.501Z,98243.22
2018-12-26T10:04:33.884Z,98238.78
2018-12-26T10:07:04.155Z,98241.88
2018-12-26T10:09:34.471Z,98229.78
2018-12-26T10:12:04.831Z,98232.37
2018-12-26T10:14:35.166Z,98225.19
2018-12-26T10:17:05.549Z,98230.00
2018-12-26T10:19:35.876Z,98221.94
2018-12-26T10:22:25.068Z,98216.05
2018-12-26T10:24:55.411Z,98211.55
2018-12-26T10:27:26.033Z,98207.05
2018-12-26T10:29:56.383Z,98187.20
2018-12-26T10:32:26.708Z,98189.02
2018-12-26T10:34:57.037Z,98194.48
2018-12-26T10:37:27.370Z,98183.31
2018-12-26T10:39:57.630Z,98180.72
2018-12-26T10:42:27.969Z,98176.78
2018-12-26T10:44:58.321Z,98168.30
2018-12-26T10:47:28.592Z,98174.65
2018-12-26T10:49:58.876Z,98165.14
2018-12-26T10:52:29.145Z,98167.42
2018-12-26T10:55:18.305Z,98154.85
2018-12-26T10:57:48.637Z,98165.14
2018-12-26T11:00:19.007Z,98162.92
2018-12-26T11:02:49.352Z,98174.09
2018-12-26T11:05:19.720Z,98160.55
2018-12-26T11:07:50.046Z,98162.77
2018-12-26T11:10:20.382Z,98155.64
2018-12-26T11:12:50.708Z,98153.36
2018-12-26T11:15:20.963Z,98136.34
2018-12-26T11:17:51.303Z,98155.55
2018-12-26T11:20:21.630Z,98149.70
2018-12-26T11:22:51.994Z,98154.61
2018-12-26T11:25:22.314Z,98148.82
2018-12-26T11:27:52.982Z,98143.85
2018-12-26T11:30:43.743Z,98134.91
2018-12-26T11:33:14.076Z,98133.97
2018-12-26T11:35:44.366Z,98124.93
2018-12-26T11:38:14.734Z,98111.02
2018-12-26T11:40:45.220Z,98115.92
2018-12-26T11:43:15.520Z,98105.17
2018-12-26T11:45:45.876Z,98117.73
2018-12-26T11:48:16.220Z,98119.09
2018-12-26T11:50:46.649Z,98117.27
2018-12-26T11:53:16.996Z,98106.98
2018-12-26T11:55:47.337Z,98102.95
2018-12-26T11:58:17.695Z,98101.98
2018-12-26T12:00:48.032Z,98093.44
2018-12-26T12:03:18.352Z,98101.51
2018-12-26T12:05:48.692Z,98102.39
2018-12-26T12:08:19.158Z,98096.59
2018-12-26T12:10:50.257Z,98094.78
2018-12-26T12:16:28.731Z,98065.67
2018-12-26T12:18:59.087Z,98073.73
2018-12-26T12:21:29.432Z,98073.73
2018-12-26T12:23:59.807Z,98077.77
2018-12-26T12:26:30.602Z,98078.27
2018-12-26T12:29:00.916Z,98082.69
2018-12-26T12:31:31.273Z,98077.30
2018-12-26T12:34:01.528Z,98059.82
2018-12-26T12:36:31.889Z,98054.44
2018-12-26T12:39:40.295Z,98062.52
2018-12-26T12:42:10.576Z,98060.80
2018-12-26T12:44:40.911Z,98055.88
2018-12-26T12:47:11.476Z,98050.50
2018-12-26T12:49:41.745Z,98048.28
2018-12-26T12:52:12.031Z,98043.78
2018-12-26T12:54:42.390Z,98045.59
2018-12-26T12:57:12.666Z,98048.69
2018-12-26T12:59:44.867Z,98044.25
2018-12-26T13:02:34.032Z,98041.09
2018-12-26T13:05:06.589Z,98042.03
2018-12-26T13:07:36.951Z,98036.65
2018-12-26T13:10:07.206Z,98039.84
2018-12-26T13:12:37.566Z,98032.24
2018-12-26T13:15:07.860Z,98019.27
2018-12-26T13:17:38.279Z,98025.52
2018-12-26T13:20:09.582Z,98031.37
2018-12-26T13:22:39.850Z,98015.23
2018-12-26T13:25:10.233Z,98019.27
2018-12-26T13:27:40.607Z,98020.61
2018-12-26T13:30:22.252Z,98024.64
2018-12-26T13:32:52.543Z,98027.73
2018-12-26T13:35:22.875Z,98039.44
2018-12-26T13:37:53.214Z,98036.75
2018-12-26T13:40:23.543Z,98034.52
2018-12-26T13:42:53.899Z,98037.78
2018-12-26T13:45:24.167Z,98038.66
2018-12-26T13:47:56.799Z,98035.09
2018-12-26T13:50:27.419Z,98030.59
2018-12-26T13:52:57.767Z,98041.75
2018-12-26T13:55:28.161Z,98041.34
2018-12-26T13:57:58.517Z,98032.81
2018-12-26T14:00:28.849Z,98027.90
2018-12-26T14:02:59.211Z,98031.46
2018-12-26T14:05:29.581Z,98035.03
2018-12-26T14:07:59.899Z,98029.66
2018-12-26T14:10:49.080Z,98037.72
2018-12-26T14:16:23.975Z,98034.63
2018-12-26T14:18:54.286Z,98018.95
2018-12-26T14:21:24.639Z,98021.58
2018-12-26T14:24:13.833Z,98025.62
2018-12-26T14:26:56.167Z,98019.36
2018-12-26T14:29:26.645Z,98020.80
2018-12-26T14:31:57.236Z,98020.70
2018-12-26T14:34:28.752Z,98017.14
2018-12-26T14:36:59.095Z,98012.64
2018-12-26T14:39:29.659Z,98017.05
2018-12-26T14:42:00.004Z,98006.29
2018-12-26T14:44:30.705Z,98014.36
2018-12-26T14:47:01.279Z,98010.73
2018-12-26T14:49:31.658Z,98014.30
2018-12-26T14:52:02.016Z,98018.33
2018-12-26T14:57:27.630Z,98023.20
2018-12-26T14:59:58.439Z,98025.52
2018-12-26T15:02:48.140Z,98014.30
2018-12-26T15:05:20.317Z,98020.61
2018-12-26T15:07:50.877Z,98031.37
2018-12-26T15:10:22.436Z,98026.86
2018-12-26T15:12:52.840Z,98035.88
2018-12-26T15:15:23.299Z,98031.84
2018-12-26T15:17:54.766Z,98045.38
2018-12-26T15:26:36.698Z,98048.06
2018-12-26T15:29:07.311Z,98046.35
2018-12-26T15:31:38.139Z,98057.67
2018-12-26T15:34:08.819Z,98060.92
2018-12-26T15:37:00.467Z,98063.61
2018-12-26T15:39:31.150Z,98068.99
2018-12-26T15:42:01.616Z,98059.17
2018-12-26T15:44:32.191Z,98070.43
2018-12-26T15:47:07.491Z,98072.62
2018-12-26T15:49:37.996Z,98078.49
2018-12-26T15:52:10.668Z,98087.03
2018-12-26T15:55:01.013Z,98084.72
2018-12-26T15:57:31.778Z,98085.59
2018-12-26T16:00:02.543Z,98093.19
2018-12-26T16:02:33.293Z,98093.09
2018-12-26T16:05:03.855Z,98093.56
2018-12-26T16:07:34.588Z,98092.22
2018-12-26T16:10:05.893Z,98102.98
2018-12-26T16:12:36.663Z,98102.51
2018-12-26T16:15:10.519Z,98092.72
2018-12-26T16:17:41.274Z,98113.27
2018-12-26T16:20:12.429Z,98107.64
2018-12-26T16:22:43.447Z,98105.64
2018-12-26T16:25:14.672Z,98111.11
2018-12-26T16:31:10.883Z,98118.30
2018-12-26T16:33:41.166Z,98121.87
2018-12-26T16:36:12.991Z,98128.19
2018-12-26T16:38:54.490Z,98123.21
2018-12-26T16:41:24.891Z,98125.40
2018-12-26T16:43:56.877Z,98131.09
2018-12-26T16:46:27.223Z,98132.84
2018-12-26T16:48:57.740Z,98133.22
2018-12-26T16:51:28.111Z,98134.97
2018-12-26T16:53:58.483Z,98126.41
2018-12-26T16:56:28.867Z,98137.13
2018-12-26T16:58:59.257Z,98132.13
2018-12-26T17:01:32.170Z,98125.81
2018-12-26T17:04:02.616Z,98132.91
2018-12-26T17:06:35.454Z,98137.83
2018-12-26T17:09:09.091Z,98147.14
2018-12-26T17:14:30.979Z,98149.74
2018-12-26T17:17:12.733Z,98152.84
2018-12-26T17:19:43.118Z,98159.94
2018-12-26T17:22:13.450Z,98159.94
2018-12-26T17:24:43.922Z,98154.50
2018-12-26T17:27:14.349Z,98158.91
2018-12-26T17:29:44.892Z,98162.94
2018-12-26T17:32:15.442Z,98169.20
2018-12-26T17:34:46.349Z,98168.23
2018-12-26T17:37:49.953Z,98169.57
2018-12-26T17:40:21.982Z,98169.89
2018-12-26T17:43:18.788Z,98172.98
2018-12-26T17:45:49.587Z,98180.09
2018-12-26T17:48:20.185Z,98184.03
2018-12-26T17:50:51.830Z,98192.51
2018-12-26T17:54:00.705Z,98172.70
2018-12-26T17:56:45.082Z,98192.83
2018-12-26T17:59:53.338Z,98182.44
2018-12-26T18:02:45.425Z,98188.70
2018-12-26T18:05:17.585Z,98202.05
2018-12-26T18:07:50.040Z,98188.50
2018-12-26T18:10:21.742Z,98179.96
2018-12-26T18:16:19.099Z,98176.33
2018-12-26T18:18:49.898Z,98187.56
2018-12-26T18:21:20.322Z,98191.51
2018-12-26T18:27:14.862Z,98196.80
2018-12-26T18:29:46.599Z,98181.99
2018-12-26T18:32:17.177Z,98193.17
2018-12-26T18:34:47.742Z,98186.91
2018-12-26T18:37:18.439Z,98185.41
2018-12-26T18:39:48.884Z,98185.91
2018-12-26T18:42:19.510Z,98179.80
2018-12-26T18:44:50.372Z,98192.69
2018-12-26T18:47:23.465Z,98183.66
2018-12-26T18:49:53.902Z,98189.98
2018-12-26T18:52:24.473Z,98199.59
2018-12-26T18:54:54.700Z,98197.84
2018-12-26T18:57:25.174Z,98206.39
2018-12-26T19:05:55.180Z,98202.35
2018-12-26T19:08:25.543Z,98207.73
2018-12-26T19:10:55.936Z,98200.54
2018-12-26T19:13:26.334Z,98215.25
2018-12-26T19:15:57.258Z,98205.83
2018-12-26T19:18:46.889Z,98213.44
2018-12-26T19:21:17.321Z,98223.73
2018-12-26T19:23:48.136Z,98217.47
2018-12-26T19:26:18.721Z,98217.00
2018-12-26T19:28:49.454Z,98206.70
2018-12-26T19:31:20.347Z,98215.19
2018-12-26T19:34:00.339Z,98209.80
2018-12-26T19:36:32.363Z,98214.22
2018-12-26T19:39:02.947Z,98220.48
2018-12-26T19:41:37.033Z,98218.25
2018-12-26T19:44:07.998Z,98222.30
2018-12-26T19:46:57.553Z,98220.95
2018-12-26T19:49:28.732Z,98225.77
2018-12-26T19:52:18.253Z,98219.91
2018-12-26T19:54:49.268Z,98229.43
2018-12-26T19:57:22.669Z,98228.86
2018-12-26T19:59:53.117Z,98239.64
2018-12-26T20:02:23.650Z,98214.52
2018-12-26T20:04:54.000Z,98230.21
2018-12-26T20:07:26.505Z,98234.25
2018-12-26T20:09:56.895Z,98240.98
2018-12-26T20:12:46.413Z,98247.72
2018-12-26T20:15:35.830Z,98232.50
2018-12-26T20:18:06.273Z,98229.70
2018-12-26T20:20:36.849Z,98248.09
2018-12-26T20:23:07.234Z,98244.52
2018-12-26T20:25:37.645Z,98238.66
2018-12-26T20:28:08.616Z,98249.84
2018-12-26T20:30:43.715Z,98253.88
2018-12-26T20:33:14.168Z,98235.88
2018-12-26T20:35:47.593Z,98256.05
2018-12-26T20:38:19.487Z,98244.77
2018-12-26T20:40:49.909Z,98251.81
2018-12-26T20:43:20.356Z,98245.95
2018-12-26T20:45:50.788Z,98240.26
2018-12-26T20:48:22.185Z,98248.41
2018-12-26T20:54:59.099Z,98234.16
2018-12-26T20:57:29.601Z,98241.92
2018-12-26T20:59:59.982Z,98247.78
2018-12-26T21:02:30.375Z,98229.80
2018-12-26T21:05:00.769Z,98224.05
2018-12-26T21:07:31.390Z,98235.28
2018-12-26T21:10:02.900Z,98240.27
2018-12-26T21:12:34.804Z,98231.34
2018-12-26T21:15:05.160Z,98224.05
2018-12-26T21:17:35.528Z,98223.48
2018-12-26T21:20:07.155Z,98239.64
2018-12-26T21:22:37.491Z,98227.89
2018-12-26T21:25:09.146Z,98219.34
2018-12-26T21:27:39.426Z,98217.53
2018-12-26T21:30:12.796Z,98219.72
2018-12-26T21:32:43.233Z,98219.25
2018-12-26T21:35:15.158Z,98225.10
2018-12-26T21:37:45.433Z,98216.55
2018-12-26T21:40:17.353Z,98224.73
2018-12-26T21:42:49.615Z,98224.64
2018-12-26T21:45:19.992Z,98214.84
2018-12-26T21:47:50.342Z,98223.76
2018-12-26T21:50:20.717Z,98227.80
2018-12-26T21:52:53.243Z,98216.18
2018-12-26T21:55:23.592Z,98224.27
2018-12-26T21:57:54.363Z,98215.77
2018-12-26T22:00:24.705Z,98221.63
2018-12-26T22:02:55.078Z,98224.83
2018-12-26T22:05:25.427Z,98222.98
2018-12-26T22:07:55.844Z,98214.06
2018-12-26T22:10:26.190Z,98227.52
2018-12-26T22:12:56.562Z,98215.00
2018-12-26T22:15:26.965Z,98226.64
2018-12-26T22:17:57.266Z,98222.70
2018-12-26T22:20:28.360Z,98229.91
2018-12-26T22:22:58.732Z,98231.25
2018-12-26T22:25:29.097Z,98215.19
2018-12-26T22:27:59.879Z,98222.86
2018-12-26T22:30:30.353Z,98217.94
2018-12-26T22:33:01.044Z,98224.67
2018-12-26T22:35:32.556Z,98218.91
2018-12-26T22:38:22.504Z,98216.32
2018-12-26T22:44:07.860Z,98216.88
2018-12-26T22:46:38.165Z,98198.98
2018-12-26T22:52:13.521Z,98201.67
2018-12-26T22:54:43.844Z,98199.55
2018-12-26T22:57:14.441Z,98189.24
2018-12-26T22:59:44.698Z,98194.72
2018-12-26T23:02:15.060Z,98183.95
2018-12-26T23:04:45.399Z,98187.52
2018-12-26T23:07:15.783Z,98179.04
2018-12-26T23:09:46.108Z,98189.44
2018-12-26T23:12:16.447Z,98180.02
2018-12-26T23:14:46.804Z,98181.05
2018-12-26T23:17:17.193Z,98178.83
2018-12-26T23:19:47.711Z,98176.64
2018-12-26T23:22:18.039Z,98173.94
2018-12-26T23:24:48.395Z,98170.84
2018-12-26T23:27:18.733Z,98169.59
2018-12-26T23:29:49.095Z,98167.00
2018-12-26T23:32:19.361Z,98175.08
2018-12-26T23:34:49.719Z,98161.21
2018-12-26T23:37:20.076Z,98166.22
2018-12-26T23:39:50.417Z,98162.65
2018-12-26T23:42:20.725Z,98159.08
2018-12-26T23:44:51.053Z,98165.44
2018-12-26T23:50:16.590Z,98163.31
2018-12-26T23:52:46.862Z,98160.22
2018-12-26T23:55:17.153Z,98156.65
2018-12-26T23:57:47.472Z,98151.77
